SNOW

Not for real navigation. The accuracy of this data is not assured See disclaimer for more information



ICAO NAME COUNTRY WIND Kt GUST Kt VIS m TEMP/DEW C BARO METAR
K04W 8 16 1200 0/-2 30.09 K04W 150855Z AUTO 28008G16KT 250V310 0.75SM -SN BKN005 OVC022 00/M02 A3009 RMK AO2
CYYU Kapuskasing, Ont. Canada 4 0 1600 0/0 29.89 CYYU 150800Z CCA 03004KT 1SM -SN BKN003 BKN009 OVC016 00/00 A2989 RMK SN4SF2SC1SC1 SLP133
CYMO Moosonee, Ont. Canada 3 0 1600 -1/-2 29.94 CYMO 150858Z AUTO 32003KT 1 0.75SM -SN OVC017 M01/M02 A2994 RMK VIS VRB 1 1/2-3 SLP141
CYIO Pond Inlet, N. W. T. Canada 11 0 1600 -11/-12 29.55 CYIO 150800Z AUTO 17011KT 1 0.5SM -SN OVC015 M11/M12 A2955 RMK SLP016
KLZZ Lampasas, Lampasas Airport TX United States 7 21 1600 7/6 30.11 KLZZ 150855Z AUTO 36007G21KT 330V030 1SM SN BKN011 BKN020 OVC025 07/06 A3011 RMK AO2 LTG NOOP NW P00

Show more